Date,TemperatureHighF,TemperatureAvgF,TemperatureLowF,DewpointHighF,DewpointAvgF,DewpointLowF,HumidityHigh,HumidityAvg,HumidityLow,PressureMaxIn,PressureMinIn,WindSpeedMaxMPH,WindSpeedAvgMPH,GustSpeedMaxMPH,PrecipitationSumIn
2013-1-1,79.8,66.7,56.0,61.4,58.4,53.6,94,77,50,30.14,29.97,8,2,17,0.00
2013-1-2,79.6,66.6,58.1,68.1,61.8,56.1,96,86,59,30.02,29.92,8,2,15,0.00
2013-1-3,80.9,69.9,59.8,68.6,64.2,59.2,99,84,54,30.06,29.95,12,2,19,0.01
2013-1-4,70.9,67.4,63.1,68.4,64.8,61.0,97,92,87,30.18,30.03,7,3,12,0.30
2013-1-5,78.3,68.4,62.3,65.8,63.1,60.3,97,84,64,30.20,30.09,7,3,15,0.00
2013-1-6,81.8,71.9,66.1,71.2,67.2,64.8,99,86,62,30.12,29.99,7,2,13,0.00
2013-1-7,75.3,70.0,67.4,68.1,66.7,63.7,96,89,73,30.11,30.01,7,3,14,0.14
2013-1-8,84.1,72.6,64.7,72.6,67.4,62.5,99,85,55,30.13,30.02,6,2,13,0.03
2013-1-9,85.3,75.9,70.9,71.9,68.2,63.0,97,79,49,30.19,30.09,9,3,19,0.00
2013-1-10,83.4,73.7,66.1,69.1,64.2,59.5,96,74,45,30.22,30.10,11,3,23,0.00
2013-1-11,83.0,71.6,63.9,69.4,64.3,59.0,98,80,46,30.19,30.05,8,2,17,0.08
2013-1-12,83.2,72.6,65.6,68.3,65.1,62.3,95,79,51,30.11,29.99,7,2,14,0.00
2013-1-13,82.4,72.1,63.9,67.5,64.0,60.6,95,77,51,30.06,29.98,7,2,15,0.00
2013-1-14,82.0,70.2,61.2,64.0,61.4,58.3,94,76,47,30.11,30.03,7,1,16,0.00
2013-1-15,82.2,70.1,59.9,67.4,62.1,58.3,96,78,51,30.07,29.97,5,1,12,0.00
2013-1-16,82.2,70.5,60.4,66.2,62.0,58.4,96,77,47,30.03,29.93,8,2,16,0.00
2013-1-17,79.2,57.0,62.1,69.1,36.1,-99.9,96,69,65,30.06,29.92,13,4,22,0.00
2013-1-18,67.4,17.5,54.8,53.2,-58.8,-99.9,64,17,56,30.22,30.05,7,1,14,0.00
2013-1-19,74.9,16.5,69.9,63.4,-63.1,-99.9,76,16,65,30.17,30.03,8,1,16,0.00
2013-1-20,77.2,16.2,71.3,66.0,-64.2,-99.9,80,15,63,30.09,29.95,7,0,12,0.01
2013-1-21,78.1,19.5,69.4,66.4,-56.1,-99.9,84,20,64,30.02,29.93,8,1,15,0.00
2013-1-22,69.8,16.7,65.3,51.8,-62.8,-99.9,59,14,47,30.19,29.98,9,2,18,0.00
2013-1-23,73.9,25.7,65.3,47.4,-48.4,-99.9,50,13,28,30.26,30.16,7,2,14,0.00
2013-1-24,75.8,22.4,68.9,45.6,-57.1,-99.9,41,10,24,30.25,30.14,8,1,13,0.00
2013-1-25,78.3,20.0,70.3,52.6,-59.6,-99.9,51,12,37,30.23,30.11,5,0,11,0.00
2013-1-26,79.2,21.8,70.4,50.6,-57.8,-99.9,49,10,29,30.20,30.09,7,1,11,0.00
2013-1-27,79.8,26.4,58.1,56.2,-43.8,-99.9,87,20,38,30.21,30.13,7,2,16,0.00
2013-1-28,82.2,25.3,76.1,62.6,-48.9,-99.9,63,17,48,30.24,30.12,9,2,19,0.00
2013-1-29,84.9,25.2,77.4,66.8,-49.0,-99.9,70,18,48,30.17,30.02,9,2,18,0.00
2013-1-30,82.0,33.0,65.6,67.5,-29.4,-99.9,92,29,54,30.03,29.89,13,3,23,0.00
2013-1-31,72.0,22.7,61.2,59.7,-48.7,-99.9,93,21,37,30.15,29.86,8,2,15,0.00